createdAt,value
2019-04-14T00:02:25.042Z,14.30
2019-04-14T00:04:57.210Z,14.07
2019-04-14T00:07:27.706Z,13.43
2019-04-14T00:09:58.551Z,13.23
2019-04-14T00:12:29.537Z,13.53
2019-04-14T00:14:59.828Z,13.47
2019-04-14T00:17:30.607Z,14.33
2019-04-14T00:20:05.614Z,14.13
2019-04-14T00:22:35.690Z,14.40
2019-04-14T00:25:08.582Z,14.50
2019-04-14T00:27:39.024Z,13.77
2019-04-14T00:30:09.786Z,18.07
2019-04-14T00:32:49.153Z,13.90
2019-04-14T00:35:27.632Z,14.00
2019-04-14T00:38:15.249Z,13.63
2019-04-14T00:41:11.504Z,14.30
2019-04-14T00:43:55.535Z,13.27
2019-04-14T00:46:33.761Z,14.70
2019-04-14T00:49:04.989Z,13.90
2019-04-14T00:51:37.736Z,13.83
2019-04-14T00:54:06.636Z,14.63
2019-04-14T00:56:36.892Z,14.37
2019-04-14T00:59:07.141Z,14.27
2019-04-14T01:01:37.260Z,13.67
2019-04-14T01:04:07.736Z,14.53
2019-04-14T01:06:38.199Z,15.03
2019-04-14T01:09:09.317Z,14.07
2019-04-14T01:11:40.204Z,14.57
2019-04-14T01:14:10.577Z,14.43
2019-04-14T01:16:40.850Z,13.87
2019-04-14T01:19:11.273Z,14.50
2019-04-14T01:21:43.512Z,14.60
2019-04-14T01:24:14.283Z,14.47
2019-04-14T01:26:44.251Z,14.53
2019-04-14T01:29:16.489Z,14.60
2019-04-14T01:31:47.311Z,14.53
2019-04-14T01:34:17.741Z,13.73
2019-04-14T01:36:49.705Z,14.60
2019-04-14T01:39:19.811Z,13.40
2019-04-14T01:41:50.000Z,14.33
2019-04-14T01:44:21.996Z,15.33
2019-04-14T01:46:52.185Z,14.80
2019-04-14T01:49:22.524Z,15.07
2019-04-14T01:52:12.522Z,15.70
2019-04-14T01:55:16.297Z,14.87
2019-04-14T01:57:56.844Z,14.80
2019-04-14T02:00:42.396Z,15.70
2019-04-14T02:03:12.774Z,14.87
2019-04-14T02:05:43.183Z,14.97
2019-04-14T02:08:15.424Z,15.53
2019-04-14T02:10:45.594Z,14.23
2019-04-14T02:13:15.718Z,14.47
2019-04-14T02:15:48.512Z,15.03
2019-04-14T02:18:20.880Z,17.10
2019-04-14T02:20:51.278Z,14.70
2019-04-14T02:23:21.510Z,14.73
2019-04-14T02:25:53.632Z,13.87
2019-04-14T02:28:24.605Z,14.53
2019-04-14T02:31:08.669Z,14.37
2019-04-14T02:33:50.621Z,14.23
2019-04-14T02:36:35.744Z,14.73
2019-04-14T02:38:54.860Z,14.53
2019-04-14T02:41:47.068Z,15.13
2019-04-14T02:44:39.962Z,15.70
2019-04-14T02:46:36.233Z,14.90
2019-04-14T02:48:58.357Z,15.20
2019-04-14T02:54:07.299Z,14.93
2019-04-14T02:59:03.691Z,14.63
2019-04-14T03:01:38.745Z,15.67
2019-04-14T03:04:08.934Z,14.40
2019-04-14T03:06:41.437Z,15.37
2019-04-14T03:14:21.529Z,15.27
2019-04-14T03:16:54.344Z,16.57
2019-04-14T03:19:56.835Z,16.57
2019-04-14T03:22:43.823Z,16.33
2019-04-14T03:25:27.802Z,17.50
2019-04-14T03:34:08.332Z,17.67
2019-04-14T03:38:50.882Z,20.03
2019-04-14T03:41:24.133Z,18.07
2019-04-14T03:43:43.115Z,18.77
2019-04-14T03:46:25.496Z,19.43
2019-04-14T03:56:33.469Z,20.17
2019-04-14T03:59:04.219Z,18.97
2019-04-14T04:01:36.646Z,19.33
2019-04-14T04:04:09.556Z,19.30
2019-04-14T04:06:42.057Z,19.27
2019-04-14T04:09:12.714Z,21.03
2019-04-14T04:11:43.478Z,20.53
2019-04-14T04:14:13.945Z,20.13
2019-04-14T04:17:10.055Z,21.10
2019-04-14T04:20:02.571Z,22.90
2019-04-14T04:22:52.280Z,23.33
2019-04-14T04:25:44.459Z,23.87
2019-04-14T04:28:37.021Z,22.80
2019-04-14T04:31:11.429Z,24.63
2019-04-14T04:33:52.282Z,24.87
2019-04-14T04:36:42.041Z,23.97
2019-04-14T04:39:17.172Z,24.07
2019-04-14T04:41:47.260Z,24.87
2019-04-14T04:44:18.318Z,22.53
2019-04-14T04:46:48.402Z,23.10
2019-04-14T04:49:23.122Z,22.13
2019-04-14T04:51:50.831Z,21.23
2019-04-14T04:54:21.881Z,21.57
2019-04-14T04:56:52.304Z,20.20
2019-04-14T04:59:23.605Z,20.43
2019-04-14T05:01:53.868Z,21.47
2019-04-14T05:04:24.367Z,22.83
2019-04-14T05:07:01.558Z,21.23
2019-04-14T05:10:09.125Z,22.03
2019-04-14T05:13:07.232Z,23.53
2019-04-14T05:15:42.423Z,23.97
2019-04-14T05:18:26.773Z,23.47
2019-04-14T05:20:57.439Z,22.17
2019-04-14T05:23:27.787Z,25.67
2019-04-14T05:25:58.801Z,23.37
2019-04-14T05:28:30.998Z,23.70
2019-04-14T05:31:01.288Z,25.07
2019-04-14T05:33:33.687Z,26.00
2019-04-14T05:36:10.669Z,26.07
2019-04-14T05:38:40.878Z,25.73
2019-04-14T05:41:11.507Z,23.40
2019-04-14T05:43:48.939Z,23.20
2019-04-14T05:46:14.541Z,24.33
2019-04-14T05:48:49.168Z,24.37
2019-04-14T05:51:23.162Z,22.93
2019-04-14T05:53:52.462Z,23.47
2019-04-14T05:56:23.488Z,24.23
2019-04-14T05:58:53.865Z,22.87
2019-04-14T06:01:34.281Z,21.87
2019-04-14T06:04:04.631Z,21.67
2019-04-14T06:06:51.109Z,22.57
2019-04-14T06:09:22.657Z,22.80
2019-04-14T06:11:52.994Z,21.93
2019-04-14T06:14:23.386Z,23.03
2019-04-14T06:16:54.765Z,23.50
2019-04-14T06:19:37.148Z,23.83
2019-04-14T06:22:00.595Z,24.50
2019-04-14T06:24:31.005Z,21.93
2019-04-14T06:27:01.426Z,21.70
2019-04-14T06:29:31.866Z,21.40
2019-04-14T06:32:16.178Z,21.73
2019-04-14T06:34:58.737Z,22.47
2019-04-14T06:37:48.377Z,23.97
2019-04-14T06:40:51.968Z,20.77
2019-04-14T06:44:11.741Z,22.37
2019-04-14T06:46:41.088Z,21.53
2019-04-14T06:49:13.542Z,21.20
2019-04-14T06:51:42.876Z,21.43
2019-04-14T06:54:12.197Z,20.80
2019-04-14T06:56:41.539Z,21.80
2019-04-14T06:59:10.953Z,22.20
2019-04-14T07:01:40.234Z,22.13
2019-04-14T07:04:09.580Z,21.60
2019-04-14T07:06:39.033Z,20.73
2019-04-14T07:09:08.358Z,21.67
2019-04-14T07:11:37.691Z,20.90
2019-04-14T07:14:07.055Z,20.57
2019-04-14T07:16:36.397Z,19.33
2019-04-14T07:19:05.696Z,20.37
2019-04-14T07:21:35.058Z,28.23
2019-04-14T07:24:04.377Z,20.13
2019-04-14T07:26:33.747Z,20.53
2019-04-14T07:29:03.101Z,23.00
2019-04-14T07:32:09.771Z,19.10
2019-04-14T07:37:42.574Z,21.17
2019-04-14T07:40:43.365Z,19.83
2019-04-14T07:43:30.410Z,19.23
2019-04-14T07:46:19.078Z,21.27
2019-04-14T07:49:04.015Z,20.80
2019-04-14T07:52:01.380Z,20.20
2019-04-14T07:54:44.317Z,19.37
2019-04-14T07:57:28.775Z,20.33
2019-04-14T08:00:06.797Z,21.43
2019-04-14T08:02:52.579Z,21.13
2019-04-14T08:05:34.253Z,20.83
2019-04-14T08:08:03.618Z,21.43
2019-04-14T08:10:32.937Z,23.00
2019-04-14T08:13:02.322Z,22.50
2019-04-14T08:15:31.665Z,22.20
2019-04-14T08:18:00.980Z,21.80
2019-04-14T08:20:30.318Z,21.63
2019-04-14T08:22:59.645Z,21.33
2019-04-14T08:25:34.978Z,23.77
2019-04-14T08:28:04.876Z,22.60
2019-04-14T08:30:34.193Z,21.83
2019-04-14T08:33:04.283Z,22.27
2019-04-14T08:35:34.504Z,22.53
2019-04-14T08:38:04.961Z,25.13
2019-04-14T08:40:35.431Z,24.40
2019-04-14T08:43:23.758Z,23.53
2019-04-14T08:46:09.616Z,22.77
2019-04-14T08:48:56.249Z,26.33
2019-04-14T08:51:49.208Z,24.43
2019-04-14T08:54:37.350Z,23.83
2019-04-14T08:57:16.970Z,23.47
2019-04-14T09:00:04.624Z,24.67
2019-04-14T09:02:52.459Z,24.00
2019-04-14T09:05:33.233Z,23.67
2019-04-14T09:08:25.569Z,24.93
2019-04-14T09:10:58.440Z,24.77
2019-04-14T09:13:28.614Z,24.30
2019-04-14T09:15:58.571Z,26.47
2019-04-14T09:18:28.669Z,25.57
2019-04-14T09:20:58.853Z,25.50
2019-04-14T09:23:28.877Z,25.97
2019-04-14T09:25:58.904Z,24.13
2019-04-14T09:28:35.021Z,27.60
2019-04-14T09:31:04.914Z,27.27
2019-04-14T09:33:35.071Z,25.13
2019-04-14T09:36:08.560Z,26.60
2019-04-14T09:38:38.706Z,24.93
2019-04-14T09:41:08.823Z,25.13
2019-04-14T09:43:39.019Z,25.03
2019-04-14T09:46:09.129Z,26.97
2019-04-14T09:48:39.194Z,29.73
2019-04-14T09:51:11.530Z,26.30
2019-04-14T09:53:41.751Z,24.23
2019-04-14T09:56:11.773Z,26.83
2019-04-14T09:58:41.643Z,27.60
2019-04-14T10:01:11.751Z,26.63
2019-04-14T10:03:41.814Z,25.47
2019-04-14T10:06:11.861Z,27.87
2019-04-14T10:08:41.895Z,28.20
2019-04-14T10:11:12.149Z,27.77
2019-04-14T10:13:42.217Z,28.30
2019-04-14T10:16:12.499Z,28.03
2019-04-14T10:18:42.440Z,28.97
2019-04-14T10:21:17.758Z,34.90
2019-04-14T10:23:44.525Z,31.17
2019-04-14T10:26:14.548Z,31.50
2019-04-14T10:28:44.557Z,32.57
2019-04-14T10:31:14.569Z,29.47
2019-04-14T10:33:44.561Z,33.97
2019-04-14T10:36:20.608Z,30.73
2019-04-14T10:38:50.631Z,32.83
2019-04-14T10:41:20.896Z,33.20
2019-04-14T10:43:50.919Z,35.70
2019-04-14T10:46:21.442Z,27.87
2019-04-14T10:48:51.489Z,33.30
2019-04-14T10:51:30.044Z,32.30
2019-04-14T10:53:53.601Z,33.43
2019-04-14T10:56:23.508Z,34.20
2019-04-14T10:58:53.665Z,30.90
2019-04-14T11:01:23.778Z,33.27
2019-04-14T11:03:53.894Z,31.57
2019-04-14T11:06:34.787Z,33.90
2019-04-14T11:09:06.921Z,34.90
2019-04-14T11:11:37.069Z,34.00
2019-04-14T11:14:07.054Z,35.57
2019-04-14T11:16:39.330Z,33.40
2019-04-14T11:19:09.484Z,30.17
2019-04-14T11:21:42.603Z,31.40
2019-04-14T11:24:11.034Z,33.00
2019-04-14T11:26:41.081Z,32.77
2019-04-14T11:29:10.970Z,34.50
2019-04-14T11:32:03.361Z,33.77
2019-04-14T11:34:55.686Z,32.30
2019-04-14T11:37:43.401Z,31.60
2019-04-14T11:40:16.899Z,31.53
2019-04-14T11:42:52.512Z,33.47
2019-04-14T11:45:18.483Z,33.10
2019-04-14T11:47:48.602Z,30.50
2019-04-14T11:50:18.751Z,37.40
2019-04-14T11:52:48.803Z,39.63
2019-04-14T11:55:18.919Z,37.43
2019-04-14T11:57:49.122Z,36.40
2019-04-14T12:00:44.280Z,37.10
2019-04-14T12:03:32.490Z,35.73
2019-04-14T12:06:25.068Z,35.70
2019-04-14T12:09:02.598Z,35.23
2019-04-14T12:11:32.339Z,33.13
2019-04-14T12:14:02.333Z,37.40
2019-04-14T12:16:32.397Z,39.33
2019-04-14T12:19:02.378Z,34.87
2019-04-14T12:21:32.452Z,33.13
2019-04-14T12:24:22.297Z,37.03
2019-04-14T12:26:52.238Z,39.97
2019-04-14T12:29:45.678Z,37.70
2019-04-14T12:32:17.221Z,39.33
2019-04-14T12:34:51.986Z,42.73
2019-04-14T12:37:32.290Z,37.80
2019-04-14T12:40:02.788Z,36.33
2019-04-14T12:42:47.138Z,38.10
2019-04-14T12:45:44.593Z,37.23
2019-04-14T12:48:23.497Z,36.57
2019-04-14T12:50:57.196Z,37.23
2019-04-14T12:53:26.602Z,37.07
2019-04-14T12:55:55.898Z,39.70
2019-04-14T12:58:44.240Z,54.27
2019-04-14T13:01:16.384Z,67.40
2019-04-14T13:03:45.796Z,43.20
2019-04-14T13:06:16.257Z,41.33
2019-04-14T13:08:47.684Z,40.17
2019-04-14T13:11:16.971Z,39.17
2019-04-14T13:13:46.281Z,37.20
2019-04-14T13:16:15.693Z,41.70
2019-04-14T13:18:47.094Z,38.80
2019-04-14T13:21:16.378Z,40.13
2019-04-14T13:23:47.781Z,40.03
2019-04-14T13:26:17.100Z,40.57
2019-04-14T13:28:46.462Z,40.63
2019-04-14T13:31:15.812Z,42.47
2019-04-14T13:33:45.165Z,37.83
2019-04-14T13:36:14.522Z,42.87
2019-04-14T13:38:43.812Z,38.33
2019-04-14T13:41:13.170Z,41.33
2019-04-14T13:43:42.993Z,40.20
2019-04-14T13:46:12.441Z,41.40
2019-04-14T13:48:44.901Z,39.03
2019-04-14T13:51:14.197Z,41.63
2019-04-14T13:53:43.873Z,42.27
2019-04-14T13:56:15.357Z,40.00
2019-04-14T13:58:45.649Z,38.97
2019-04-14T14:01:15.038Z,38.10
2019-04-14T14:03:44.779Z,43.43
2019-04-14T14:06:14.081Z,41.50
2019-04-14T14:08:43.605Z,39.60
2019-04-14T14:11:32.372Z,39.73
2019-04-14T14:14:21.224Z,47.30
2019-04-14T14:17:27.870Z,47.13
2019-04-14T14:20:05.673Z,43.13
2019-04-14T14:22:44.453Z,41.27
2019-04-14T14:25:33.340Z,45.10
2019-04-14T14:28:02.769Z,42.53
2019-04-14T14:30:32.208Z,44.93
2019-04-14T14:33:01.666Z,42.80
2019-04-14T14:35:31.045Z,41.60
2019-04-14T14:38:00.397Z,39.63
2019-04-14T14:40:29.722Z,42.80
2019-04-14T14:42:59.270Z,45.27
2019-04-14T14:45:47.494Z,42.60
2019-04-14T14:48:26.265Z,43.30
2019-04-14T14:51:14.510Z,45.57
2019-04-14T14:53:44.000Z,41.07
2019-04-14T14:56:13.333Z,52.30
2019-04-14T14:58:45.248Z,42.17
2019-04-14T15:01:13.892Z,41.47
2019-04-14T15:03:43.270Z,49.83
2019-04-14T15:06:12.642Z,45.37
2019-04-14T15:08:42.015Z,39.93
2019-04-14T15:11:12.389Z,45.90
2019-04-14T15:13:41.799Z,44.57
2019-04-14T15:16:11.157Z,43.03
2019-04-14T15:18:40.520Z,43.83
2019-04-14T15:21:09.985Z,38.77
2019-04-14T15:23:40.714Z,40.97
2019-04-14T15:26:10.063Z,40.27
2019-04-14T15:28:39.822Z,42.87
2019-04-14T15:31:09.163Z,41.23
2019-04-14T15:33:38.520Z,38.97
2019-04-14T15:36:07.935Z,39.70
2019-04-14T15:38:38.012Z,45.10
2019-04-14T15:41:07.940Z,45.87
2019-04-14T15:43:37.944Z,43.97
2019-04-14T15:46:08.033Z,45.40
2019-04-14T15:48:38.069Z,43.97
2019-04-14T15:51:08.339Z,45.43
2019-04-14T15:53:38.547Z,42.63
2019-04-14T15:56:09.990Z,47.60
2019-04-14T15:58:53.416Z,41.87
2019-04-14T16:01:40.585Z,41.70
2019-04-14T16:04:20.003Z,43.50
2019-04-14T16:07:07.291Z,45.87
2019-04-14T16:10:01.661Z,43.10
2019-04-14T16:12:41.325Z,42.40
2019-04-14T16:15:24.033Z,44.00
2019-04-14T16:18:11.340Z,45.10
2019-04-14T16:20:42.539Z,44.63
2019-04-14T16:23:12.041Z,45.00
2019-04-14T16:25:56.146Z,45.13
2019-04-14T16:28:30.499Z,44.50
2019-04-14T16:31:22.658Z,43.60
2019-04-14T16:34:25.934Z,42.30
2019-04-14T16:36:55.556Z,45.00
2019-04-14T16:39:24.949Z,42.70
2019-04-14T16:41:55.416Z,42.13
2019-04-14T16:44:24.772Z,46.67
2019-04-14T16:46:54.202Z,51.73
2019-04-14T16:49:23.622Z,45.17
2019-04-14T16:51:56.515Z,44.03
2019-04-14T16:54:56.913Z,43.63
2019-04-14T16:57:43.950Z,45.50
2019-04-14T17:00:18.046Z,45.13
2019-04-14T17:02:50.076Z,46.00
2019-04-14T17:05:18.591Z,44.70
2019-04-14T17:07:48.039Z,42.87
2019-04-14T17:10:17.505Z,44.47
2019-04-14T17:12:46.851Z,47.80
2019-04-14T17:15:47.213Z,44.97
2019-04-14T17:18:30.122Z,41.20
2019-04-14T17:21:34.982Z,40.60
2019-04-14T17:24:16.441Z,43.30
2019-04-14T17:27:00.377Z,39.43
2019-04-14T17:29:54.752Z,37.07
2019-04-14T17:32:30.441Z,40.13
2019-04-14T17:35:18.524Z,41.93
2019-04-14T17:37:53.087Z,44.77
2019-04-14T17:40:45.318Z,46.40
2019-04-14T17:43:30.891Z,46.50
2019-04-14T17:46:31.762Z,45.37
2019-04-14T17:49:23.469Z,42.23
2019-04-14T17:52:11.782Z,42.97
2019-04-14T17:54:54.353Z,45.30
2019-04-14T17:57:48.810Z,43.37
2019-04-14T18:00:26.866Z,42.97
2019-04-14T18:03:00.140Z,41.43
2019-04-14T18:05:48.441Z,46.83
2019-04-14T18:08:37.741Z,44.97
2019-04-14T18:11:25.036Z,43.90
2019-04-14T18:14:25.246Z,45.80
2019-04-14T18:17:07.039Z,45.40
2019-04-14T18:20:04.674Z,45.57
2019-04-14T18:22:34.079Z,49.00
2019-04-14T18:25:04.969Z,41.30
2019-04-14T18:27:39.240Z,45.20
2019-04-14T18:30:18.679Z,43.00
2019-04-14T18:33:10.086Z,47.20
2019-04-14T18:35:59.585Z,47.43
2019-04-14T18:38:48.938Z,48.50
2019-04-14T18:41:34.513Z,44.63
2019-04-14T18:44:22.887Z,44.90
2019-04-14T18:47:26.377Z,43.60
2019-04-14T18:50:06.550Z,46.07
2019-04-14T18:52:56.179Z,46.20
2019-04-14T18:55:44.530Z,45.80
2019-04-14T18:58:48.291Z,44.83
2019-04-14T19:01:26.233Z,42.47
2019-04-14T19:03:55.646Z,44.40
2019-04-14T19:06:25.015Z,46.90
2019-04-14T19:08:54.593Z,48.73
2019-04-14T19:11:40.581Z,46.80
2019-04-14T19:14:10.817Z,47.40
2019-04-14T19:16:46.559Z,48.10
2019-04-14T19:19:16.922Z,46.63
2019-04-14T19:21:46.361Z,47.80
2019-04-14T19:24:16.778Z,52.07
2019-04-14T19:26:46.142Z,46.50
2019-04-14T19:29:15.575Z,52.93
2019-04-14T19:31:45.955Z,49.37
2019-04-14T19:34:15.306Z,45.80
2019-04-14T19:36:44.659Z,46.63
2019-04-14T19:39:15.033Z,46.90
2019-04-14T19:41:44.398Z,50.40
2019-04-14T19:44:13.741Z,47.53
2019-04-14T19:46:43.262Z,46.63
2019-04-14T19:49:12.612Z,45.90
2019-04-14T19:51:42.049Z,47.27
2019-04-14T19:54:11.404Z,43.70
2019-04-14T19:56:40.713Z,44.53
2019-04-14T19:59:10.490Z,44.27
2019-04-14T20:01:40.849Z,47.20
2019-04-14T20:04:10.243Z,50.70
2019-04-14T20:06:39.695Z,45.27
2019-04-14T20:09:09.129Z,48.03
2019-04-14T20:11:39.098Z,46.33
2019-04-14T20:14:08.516Z,46.57
2019-04-14T20:17:04.525Z,46.53
2019-04-14T20:19:58.796Z,48.20
2019-04-14T20:22:46.044Z,44.37
2019-04-14T20:25:37.113Z,43.83
2019-04-14T20:28:19.029Z,45.50
2019-04-14T20:30:52.185Z,47.87
2019-04-14T20:33:21.595Z,45.77
2019-04-14T20:35:51.037Z,52.97
2019-04-14T20:38:20.392Z,52.43
2019-04-14T20:40:49.813Z,47.37
2019-04-14T20:43:19.149Z,47.87
2019-04-14T20:45:48.489Z,48.63
2019-04-14T20:48:17.790Z,47.77
2019-04-14T20:50:47.097Z,54.90
2019-04-14T20:53:16.514Z,46.83
2019-04-14T20:55:47.485Z,48.00
2019-04-14T20:58:17.078Z,46.23
2019-04-14T21:00:47.078Z,48.83
2019-04-14T21:03:47.437Z,49.10
2019-04-14T21:06:34.369Z,48.23
2019-04-14T21:09:32.910Z,49.10
2019-04-14T21:12:20.042Z,49.00
2019-04-14T21:14:58.186Z,45.80
2019-04-14T21:17:34.565Z,47.37
2019-04-14T21:20:21.091Z,47.47
2019-04-14T21:23:18.685Z,47.10
2019-04-14T21:26:00.926Z,46.57
2019-04-14T21:29:06.413Z,47.30
2019-04-14T21:31:43.713Z,48.70
2019-04-14T21:34:17.431Z,45.27
2019-04-14T21:37:11.769Z,45.70
2019-04-14T21:39:54.653Z,43.20
2019-04-14T21:42:24.025Z,44.20
2019-04-14T21:44:53.384Z,42.00
2019-04-14T21:47:22.664Z,42.60
2019-04-14T21:49:53.046Z,43.43
2019-04-14T21:52:50.688Z,41.60
2019-04-14T21:55:20.561Z,41.90
2019-04-14T21:58:11.729Z,47.77
2019-04-14T22:02:07.016Z,40.83
2019-04-14T22:04:58.781Z,40.80
2019-04-14T22:07:47.081Z,44.27
2019-04-14T22:10:35.221Z,41.07
2019-04-14T22:13:05.509Z,39.80
2019-04-14T22:15:34.849Z,39.10
2019-04-14T22:18:04.159Z,38.27
2019-04-14T22:20:33.487Z,37.87
2019-04-14T22:23:04.359Z,40.87
2019-04-14T22:25:33.653Z,37.67
2019-04-14T22:28:03.087Z,37.60
2019-04-14T22:30:32.994Z,41.87
2019-04-14T22:33:02.341Z,37.67
2019-04-14T22:35:31.629Z,42.03
2019-04-14T22:38:01.013Z,37.53
2019-04-14T22:40:30.297Z,41.87
2019-04-14T22:42:59.597Z,37.17
2019-04-14T22:45:28.907Z,39.60
2019-04-14T22:47:58.184Z,37.87
2019-04-14T22:50:27.529Z,38.23
2019-04-14T22:52:56.806Z,38.73
2019-04-14T22:55:26.143Z,39.57
2019-04-14T22:57:55.433Z,37.33
2019-04-14T23:00:43.097Z,35.57
2019-04-14T23:03:30.314Z,37.83
2019-04-14T23:06:24.912Z,39.67
2019-04-14T23:08:59.177Z,37.83
2019-04-14T23:11:46.469Z,37.67
2019-04-14T23:14:37.741Z,38.20
2019-04-14T23:17:27.501Z,37.87
2019-04-14T23:20:27.781Z,36.03
2019-04-14T23:23:10.513Z,36.43
2019-04-14T23:25:39.836Z,38.17
2019-04-14T23:28:09.189Z,37.93
2019-04-14T23:30:38.532Z,38.90
2019-04-14T23:33:07.881Z,38.67
2019-04-14T23:35:37.202Z,35.50
2019-04-14T23:38:06.493Z,39.13
2019-04-14T23:40:36.015Z,37.33
2019-04-14T23:43:05.801Z,36.47
2019-04-14T23:45:35.127Z,35.40
2019-04-14T23:48:05.471Z,38.10
2019-04-14T23:50:34.805Z,32.40
2019-04-14T23:53:04.133Z,37.47
2019-04-14T23:55:33.481Z,36.97
2019-04-14T23:58:02.880Z,35.30
